Terminal Aerodrome Forecast
Issued by NWS

Home | Current Version | Previous Version | Text Only | Print | Product List | Glossary On
Versions: 1 2 3 4 5 6 7 8 9 10 11 12 13
000
FTAK31 PANC 301130
TAFAAQ
TAF
PAAQ 301130Z 3012/3112 11009KT P6SM VCSH BKN070
     FM302000 15015G22KT P6SM SCT120
     FM310300 16010KT P6SM FEW120=

USA.gov is the U.S. government's official web portal to all federal, state and local government web resources and services.